sensor_id;sensor_type;location;lat;lon;timestamp;temperature;humidity
7684;DHT22;3884;48.616;12.872;2023-08-06T00:02:24;15.40;99.90
7684;DHT22;3884;48.616;12.872;2023-08-06T00:04:51;15.40;99.90
7684;DHT22;3884;48.616;12.872;2023-08-06T00:07:18;15.40;99.90
7684;DHT22;3884;48.616;12.872;2023-08-06T00:09:45;15.40;99.90
7684;DHT22;3884;48.616;12.872;2023-08-06T00:12:12;15.40;99.90
7684;DHT22;3884;48.616;12.872;2023-08-06T00:14:40;15.40;99.90
7684;DHT22;3884;48.616;12.872;2023-08-06T00:17:08;15.50;99.90
7684;DHT22;3884;48.616;12.872;2023-08-06T00:19:35;15.50;99.90
7684;DHT22;3884;48.616;12.872;2023-08-06T00:22:02;15.40;99.90
7684;DHT22;3884;48.616;12.872;2023-08-06T00:24:29;15.50;99.90
7684;DHT22;3884;48.616;12.872;2023-08-06T00:26:55;15.40;99.90
7684;DHT22;3884;48.616;12.872;2023-08-06T00:29:22;15.40;99.90
7684;DHT22;3884;48.616;12.872;2023-08-06T00:31:51;15.40;99.90
7684;DHT22;3884;48.616;12.872;2023-08-06T00:34:17;15.40;99.90
7684;DHT22;3884;48.616;12.872;2023-08-06T00:36:44;15.40;99.90
7684;DHT22;3884;48.616;12.872;2023-08-06T00:39:11;15.50;99.90
7684;DHT22;3884;48.616;12.872;2023-08-06T00:41:39;15.50;99.90
7684;DHT22;3884;48.616;12.872;2023-08-06T00:44:06;15.40;99.90
7684;DHT22;3884;48.616;12.872;2023-08-06T00:46:33;15.40;99.90
7684;DHT22;3884;48.616;12.872;2023-08-06T00:49:02;15.50;99.90
7684;DHT22;3884;48.616;12.872;2023-08-06T00:51:29;15.50;99.90
7684;DHT22;3884;48.616;12.872;2023-08-06T00:53:56;15.50;99.90
7684;DHT22;3884;48.616;12.872;2023-08-06T00:56:24;15.40;99.90
7684;DHT22;3884;48.616;12.872;2023-08-06T00:58:52;15.40;99.90
7684;DHT22;3884;48.616;12.872;2023-08-06T01:01:19;15.40;99.90
7684;DHT22;3884;48.616;12.872;2023-08-06T01:03:46;15.40;99.90
7684;DHT22;3884;48.616;12.872;2023-08-06T01:06:15;15.40;99.90
7684;DHT22;3884;48.616;12.872;2023-08-06T01:09:01;15.40;99.90
7684;DHT22;3884;48.616;12.872;2023-08-06T01:11:37;15.40;99.90
7684;DHT22;3884;48.616;12.872;2023-08-06T01:14:11;15.40;99.90
7684;DHT22;3884;48.616;12.872;2023-08-06T01:16:41;15.40;99.90
7684;DHT22;3884;48.616;12.872;2023-08-06T01:19:16;15.40;99.90
7684;DHT22;3884;48.616;12.872;2023-08-06T01:21:45;15.40;99.90
7684;DHT22;3884;48.616;12.872;2023-08-06T01:24:12;15.40;99.90
7684;DHT22;3884;48.616;12.872;2023-08-06T01:26:44;15.40;99.90
7684;DHT22;3884;48.616;12.872;2023-08-06T01:29:17;15.40;99.90
7684;DHT22;3884;48.616;12.872;2023-08-06T01:31:48;15.40;99.90
7684;DHT22;3884;48.616;12.872;2023-08-06T01:34:18;15.40;99.90
7684;DHT22;3884;48.616;12.872;2023-08-06T01:36:50;15.40;99.90
7684;DHT22;3884;48.616;12.872;2023-08-06T01:39:17;15.30;99.90
7684;DHT22;3884;48.616;12.872;2023-08-06T01:41:46;15.40;99.90
7684;DHT22;3884;48.616;12.872;2023-08-06T01:44:13;15.30;99.90
7684;DHT22;3884;48.616;12.872;2023-08-06T01:46:40;15.20;99.90
7684;DHT22;3884;48.616;12.872;2023-08-06T01:49:07;15.10;99.90
7684;DHT22;3884;48.616;12.872;2023-08-06T01:51:34;14.90;99.90
7684;DHT22;3884;48.616;12.872;2023-08-06T01:54:02;14.90;99.90
7684;DHT22;3884;48.616;12.872;2023-08-06T01:56:29;14.90;99.90
7684;DHT22;3884;48.616;12.872;2023-08-06T01:58:57;14.90;99.90
7684;DHT22;3884;48.616;12.872;2023-08-06T02:01:24;14.80;99.90
7684;DHT22;3884;48.616;12.872;2023-08-06T02:03:51;14.80;99.90
7684;DHT22;3884;48.616;12.872;2023-08-06T02:06:18;14.90;99.90
7684;DHT22;3884;48.616;12.872;2023-08-06T02:08:45;14.80;99.90
7684;DHT22;3884;48.616;12.872;2023-08-06T02:11:16;14.80;99.90
7684;DHT22;3884;48.616;12.872;2023-08-06T02:13:43;14.70;99.90
7684;DHT22;3884;48.616;12.872;2023-08-06T02:16:16;14.70;99.90
7684;DHT22;3884;48.616;12.872;2023-08-06T02:18:43;14.80;99.90
7684;DHT22;3884;48.616;12.872;2023-08-06T02:21:10;14.80;99.90
7684;DHT22;3884;48.616;12.872;2023-08-06T02:23:38;14.80;99.90
7684;DHT22;3884;48.616;12.872;2023-08-06T02:26:05;14.80;99.90
7684;DHT22;3884;48.616;12.872;2023-08-06T02:28:33;14.70;99.90
7684;DHT22;3884;48.616;12.872;2023-08-06T02:31:00;14.70;99.90
7684;DHT22;3884;48.616;12.872;2023-08-06T02:33:28;14.70;99.90
7684;DHT22;3884;48.616;12.872;2023-08-06T02:36:01;14.70;99.90
7684;DHT22;3884;48.616;12.872;2023-08-06T02:38:29;14.70;99.90
7684;DHT22;3884;48.616;12.872;2023-08-06T02:40:56;14.70;99.90
7684;DHT22;3884;48.616;12.872;2023-08-06T02:43:24;14.80;99.90
7684;DHT22;3884;48.616;12.872;2023-08-06T02:45:56;14.80;99.90
7684;DHT22;3884;48.616;12.872;2023-08-06T02:48:27;14.80;99.90
7684;DHT22;3884;48.616;12.872;2023-08-06T02:50:57;14.80;99.90
7684;DHT22;3884;48.616;12.872;2023-08-06T02:53:25;14.90;99.90
7684;DHT22;3884;48.616;12.872;2023-08-06T02:55:52;14.80;99.90
7684;DHT22;3884;48.616;12.872;2023-08-06T02:58:25;14.80;99.90
7684;DHT22;3884;48.616;12.872;2023-08-06T03:01:08;14.80;99.90
7684;DHT22;3884;48.616;12.872;2023-08-06T03:03:43;14.80;99.90
7684;DHT22;3884;48.616;12.872;2023-08-06T03:06:12;14.80;99.90
7684;DHT22;3884;48.616;12.872;2023-08-06T03:08:45;14.90;99.90
7684;DHT22;3884;48.616;12.872;2023-08-06T03:11:12;14.90;99.90
7684;DHT22;3884;48.616;12.872;2023-08-06T03:13:39;14.80;99.90
7684;DHT22;3884;48.616;12.872;2023-08-06T03:16:08;14.80;99.90
7684;DHT22;3884;48.616;12.872;2023-08-06T03:18:35;14.80;99.90
7684;DHT22;3884;48.616;12.872;2023-08-06T03:21:05;14.90;99.90
7684;DHT22;3884;48.616;12.872;2023-08-06T03:23:32;14.80;99.90
7684;DHT22;3884;48.616;12.872;2023-08-06T03:26:01;14.80;99.90
7684;DHT22;3884;48.616;12.872;2023-08-06T03:28:31;14.90;99.90
7684;DHT22;3884;48.616;12.872;2023-08-06T03:31:01;14.90;99.90
7684;DHT22;3884;48.616;12.872;2023-08-06T03:33:34;14.80;99.90
7684;DHT22;3884;48.616;12.872;2023-08-06T03:36:04;14.80;99.90
7684;DHT22;3884;48.616;12.872;2023-08-06T03:38:33;14.70;99.90
7684;DHT22;3884;48.616;12.872;2023-08-06T03:41:03;14.80;99.90
7684;DHT22;3884;48.616;12.872;2023-08-06T03:43:31;14.70;99.90
7684;DHT22;3884;48.616;12.872;2023-08-06T03:45:58;14.70;99.90
7684;DHT22;3884;48.616;12.872;2023-08-06T03:48:25;14.70;99.90
7684;DHT22;3884;48.616;12.872;2023-08-06T03:50:54;14.70;99.90
7684;DHT22;3884;48.616;12.872;2023-08-06T03:53:21;14.70;99.90
7684;DHT22;3884;48.616;12.872;2023-08-06T03:55:48;14.70;99.90
7684;DHT22;3884;48.616;12.872;2023-08-06T03:58:16;14.60;99.90
7684;DHT22;3884;48.616;12.872;2023-08-06T04:00:42;14.60;99.90
7684;DHT22;3884;48.616;12.872;2023-08-06T04:03:09;14.60;99.90
7684;DHT22;3884;48.616;12.872;2023-08-06T04:05:36;14.60;99.90
7684;DHT22;3884;48.616;12.872;2023-08-06T04:08:04;14.50;99.90
7684;DHT22;3884;48.616;12.872;2023-08-06T04:10:31;14.40;99.90
7684;DHT22;3884;48.616;12.872;2023-08-06T04:13:00;14.40;99.90
7684;DHT22;3884;48.616;12.872;2023-08-06T04:15:27;14.40;99.90
7684;DHT22;3884;48.616;12.872;2023-08-06T04:17:54;14.40;99.90
7684;DHT22;3884;48.616;12.872;2023-08-06T04:20:22;14.30;99.90
7684;DHT22;3884;48.616;12.872;2023-08-06T04:22:49;14.40;99.90
7684;DHT22;3884;48.616;12.872;2023-08-06T04:25:17;14.30;99.90
7684;DHT22;3884;48.616;12.872;2023-08-06T04:27:46;14.30;99.90
7684;DHT22;3884;48.616;12.872;2023-08-06T04:30:13;14.30;99.90
7684;DHT22;3884;48.616;12.872;2023-08-06T04:32:41;14.30;99.90
7684;DHT22;3884;48.616;12.872;2023-08-06T04:35:08;14.30;99.90
7684;DHT22;3884;48.616;12.872;2023-08-06T04:37:36;14.30;99.90
7684;DHT22;3884;48.616;12.872;2023-08-06T04:40:04;14.40;99.90
7684;DHT22;3884;48.616;12.872;2023-08-06T04:42:32;14.40;99.90
7684;DHT22;3884;48.616;12.872;2023-08-06T04:45:01;14.40;99.90
7684;DHT22;3884;48.616;12.872;2023-08-06T04:47:28;14.40;99.90
7684;DHT22;3884;48.616;12.872;2023-08-06T04:49:55;14.40;99.90
7684;DHT22;3884;48.616;12.872;2023-08-06T04:52:22;14.40;99.90
7684;DHT22;3884;48.616;12.872;2023-08-06T04:54:48;14.30;99.90
7684;DHT22;3884;48.616;12.872;2023-08-06T04:57:15;14.40;99.90
7684;DHT22;3884;48.616;12.872;2023-08-06T04:59:43;14.40;99.90
7684;DHT22;3884;48.616;12.872;2023-08-06T05:02:10;14.30;99.90
7684;DHT22;3884;48.616;12.872;2023-08-06T05:04:37;14.40;99.90
7684;DHT22;3884;48.616;12.872;2023-08-06T05:07:05;14.30;99.90
7684;DHT22;3884;48.616;12.872;2023-08-06T05:09:32;14.30;99.90
7684;DHT22;3884;48.616;12.872;2023-08-06T05:12:00;14.30;99.90
7684;DHT22;3884;48.616;12.872;2023-08-06T05:14:27;14.30;99.90
7684;DHT22;3884;48.616;12.872;2023-08-06T05:16:55;14.30;99.90
7684;DHT22;3884;48.616;12.872;2023-08-06T05:19:22;14.40;99.90
7684;DHT22;3884;48.616;12.872;2023-08-06T05:21:49;14.40;99.90
7684;DHT22;3884;48.616;12.872;2023-08-06T05:24:16;14.50;99.90
7684;DHT22;3884;48.616;12.872;2023-08-06T05:26:43;14.50;99.90
7684;DHT22;3884;48.616;12.872;2023-08-06T05:29:12;14.50;99.90
7684;DHT22;3884;48.616;12.872;2023-08-06T05:31:39;14.50;99.90
7684;DHT22;3884;48.616;12.872;2023-08-06T05:34:07;14.50;99.90
7684;DHT22;3884;48.616;12.872;2023-08-06T05:36:34;14.60;99.90
7684;DHT22;3884;48.616;12.872;2023-08-06T05:39:01;14.50;99.90
7684;DHT22;3884;48.616;12.872;2023-08-06T05:41:28;14.50;99.90
7684;DHT22;3884;48.616;12.872;2023-08-06T05:43:55;14.60;99.90
7684;DHT22;3884;48.616;12.872;2023-08-06T05:46:21;14.60;99.90
7684;DHT22;3884;48.616;12.872;2023-08-06T05:48:49;14.60;99.90
7684;DHT22;3884;48.616;12.872;2023-08-06T05:51:18;14.50;99.90
7684;DHT22;3884;48.616;12.872;2023-08-06T05:53:44;14.50;99.90
7684;DHT22;3884;48.616;12.872;2023-08-06T05:56:12;14.50;99.90
7684;DHT22;3884;48.616;12.872;2023-08-06T05:58:39;14.60;99.90
7684;DHT22;3884;48.616;12.872;2023-08-06T06:01:06;14.40;99.90
7684;DHT22;3884;48.616;12.872;2023-08-06T06:03:33;14.40;99.90
7684;DHT22;3884;48.616;12.872;2023-08-06T06:06:01;14.40;99.90
7684;DHT22;3884;48.616;12.872;2023-08-06T06:08:29;14.40;99.90
7684;DHT22;3884;48.616;12.872;2023-08-06T06:10:56;14.40;99.90
7684;DHT22;3884;48.616;12.872;2023-08-06T06:13:23;14.40;99.90
7684;DHT22;3884;48.616;12.872;2023-08-06T06:15:50;14.40;99.90
7684;DHT22;3884;48.616;12.872;2023-08-06T06:18:16;14.40;99.90
7684;DHT22;3884;48.616;12.872;2023-08-06T06:20:43;14.40;99.90
7684;DHT22;3884;48.616;12.872;2023-08-06T06:23:12;14.40;99.90
7684;DHT22;3884;48.616;12.872;2023-08-06T06:25:43;14.40;99.90
7684;DHT22;3884;48.616;12.872;2023-08-06T06:28:10;14.40;99.90
7684;DHT22;3884;48.616;12.872;2023-08-06T06:30:37;14.50;99.90
7684;DHT22;3884;48.616;12.872;2023-08-06T06:33:04;14.50;99.90
7684;DHT22;3884;48.616;12.872;2023-08-06T06:35:31;14.50;99.90
7684;DHT22;3884;48.616;12.872;2023-08-06T06:37:58;14.60;99.90
7684;DHT22;3884;48.616;12.872;2023-08-06T06:40:25;14.60;99.90
7684;DHT22;3884;48.616;12.872;2023-08-06T06:42:53;14.70;99.90
7684;DHT22;3884;48.616;12.872;2023-08-06T06:45:20;14.80;99.90
7684;DHT22;3884;48.616;12.872;2023-08-06T06:47:47;14.80;99.90
7684;DHT22;3884;48.616;12.872;2023-08-06T06:50:14;14.80;99.90
7684;DHT22;3884;48.616;12.872;2023-08-06T06:52:41;14.90;99.90
7684;DHT22;3884;48.616;12.872;2023-08-06T06:55:08;15.00;99.90
7684;DHT22;3884;48.616;12.872;2023-08-06T06:57:35;15.00;99.90
7684;DHT22;3884;48.616;12.872;2023-08-06T07:00:04;15.10;99.90
7684;DHT22;3884;48.616;12.872;2023-08-06T07:02:32;15.20;99.90
7684;DHT22;3884;48.616;12.872;2023-08-06T07:04:59;15.20;99.90
7684;DHT22;3884;48.616;12.872;2023-08-06T07:07:26;15.20;99.90
7684;DHT22;3884;48.616;12.872;2023-08-06T07:09:53;15.30;99.90
7684;DHT22;3884;48.616;12.872;2023-08-06T07:12:20;15.40;99.90
7684;DHT22;3884;48.616;12.872;2023-08-06T07:14:47;15.40;99.90
7684;DHT22;3884;48.616;12.872;2023-08-06T07:17:15;15.50;99.90
7684;DHT22;3884;48.616;12.872;2023-08-06T07:19:42;15.60;99.90
7684;DHT22;3884;48.616;12.872;2023-08-06T07:22:09;15.50;99.90
7684;DHT22;3884;48.616;12.872;2023-08-06T07:24:36;15.50;99.90
7684;DHT22;3884;48.616;12.872;2023-08-06T07:27:03;15.60;99.90
7684;DHT22;3884;48.616;12.872;2023-08-06T07:29:30;15.80;99.90
7684;DHT22;3884;48.616;12.872;2023-08-06T07:31:57;15.80;99.90
7684;DHT22;3884;48.616;12.872;2023-08-06T07:34:25;16.00;99.90
7684;DHT22;3884;48.616;12.872;2023-08-06T07:36:52;16.00;99.90
7684;DHT22;3884;48.616;12.872;2023-08-06T07:39:19;16.00;99.90
7684;DHT22;3884;48.616;12.872;2023-08-06T07:41:46;16.00;99.90
7684;DHT22;3884;48.616;12.872;2023-08-06T07:44:13;15.90;99.90
7684;DHT22;3884;48.616;12.872;2023-08-06T07:46:40;16.00;99.90
7684;DHT22;3884;48.616;12.872;2023-08-06T07:49:08;16.10;99.90
7684;DHT22;3884;48.616;12.872;2023-08-06T07:51:36;16.10;99.90
7684;DHT22;3884;48.616;12.872;2023-08-06T07:54:03;16.10;99.90
7684;DHT22;3884;48.616;12.872;2023-08-06T07:56:30;16.20;99.90
7684;DHT22;3884;48.616;12.872;2023-08-06T07:58:57;16.20;99.90
7684;DHT22;3884;48.616;12.872;2023-08-06T08:01:24;16.20;99.90
7684;DHT22;3884;48.616;12.872;2023-08-06T08:03:51;16.30;99.90
7684;DHT22;3884;48.616;12.872;2023-08-06T08:06:18;16.40;99.90
7684;DHT22;3884;48.616;12.872;2023-08-06T08:08:46;16.50;99.90
7684;DHT22;3884;48.616;12.872;2023-08-06T08:11:13;16.60;99.90
7684;DHT22;3884;48.616;12.872;2023-08-06T08:13:41;16.60;99.90
7684;DHT22;3884;48.616;12.872;2023-08-06T08:16:08;16.60;99.90
7684;DHT22;3884;48.616;12.872;2023-08-06T08:18:35;16.50;99.90
7684;DHT22;3884;48.616;12.872;2023-08-06T08:21:02;16.80;99.90
7684;DHT22;3884;48.616;12.872;2023-08-06T08:23:29;16.80;99.90
7684;DHT22;3884;48.616;12.872;2023-08-06T08:25:58;16.90;99.90
7684;DHT22;3884;48.616;12.872;2023-08-06T08:28:25;16.90;9.20
7684;DHT22;3884;48.616;12.872;2023-08-06T08:30:52;16.90;99.90
7684;DHT22;3884;48.616;12.872;2023-08-06T08:33:18;16.90;99.90
7684;DHT22;3884;48.616;12.872;2023-08-06T08:35:46;17.10;62.70
7684;DHT22;3884;48.616;12.872;2023-08-06T08:38:13;17.20;1.00
7684;DHT22;3884;48.616;12.872;2023-08-06T08:40:46;17.30;1.00
7684;DHT22;3884;48.616;12.872;2023-08-06T08:43:15;17.30;1.00
7684;DHT22;3884;48.616;12.872;2023-08-06T08:45:42;17.50;1.00
7684;DHT22;3884;48.616;12.872;2023-08-06T08:48:12;17.60;1.00
7684;DHT22;3884;48.616;12.872;2023-08-06T08:50:39;17.80;1.00
7684;DHT22;3884;48.616;12.872;2023-08-06T08:53:08;17.80;1.00
7684;DHT22;3884;48.616;12.872;2023-08-06T08:55:35;17.80;95.50
7684;DHT22;3884;48.616;12.872;2023-08-06T08:58:04;18.00;99.90
7684;DHT22;3884;48.616;12.872;2023-08-06T09:00:32;18.00;99.90
7684;DHT22;3884;48.616;12.872;2023-08-06T09:02:59;18.10;99.90
7684;DHT22;3884;48.616;12.872;2023-08-06T09:05:28;18.20;1.00
7684;DHT22;3884;48.616;12.872;2023-08-06T09:08:01;18.40;99.90
7684;DHT22;3884;48.616;12.872;2023-08-06T09:10:30;18.40;1.00
7684;DHT22;3884;48.616;12.872;2023-08-06T09:12:58;18.00;1.00
7684;DHT22;3884;48.616;12.872;2023-08-06T09:15:27;17.90;99.90
7684;DHT22;3884;48.616;12.872;2023-08-06T09:17:56;17.80;1.00
7684;DHT22;3884;48.616;12.872;2023-08-06T09:20:22;17.70;99.90
7684;DHT22;3884;48.616;12.872;2023-08-06T09:22:52;17.60;99.90
7684;DHT22;3884;48.616;12.872;2023-08-06T09:25:21;17.60;99.90
7684;DHT22;3884;48.616;12.872;2023-08-06T09:27:50;17.60;99.90
7684;DHT22;3884;48.616;12.872;2023-08-06T09:30:29;17.50;99.90
7684;DHT22;3884;48.616;12.872;2023-08-06T09:32:58;17.40;99.90
7684;DHT22;3884;48.616;12.872;2023-08-06T09:35:28;17.40;1.00
7684;DHT22;3884;48.616;12.872;2023-08-06T09:38:05;17.40;99.90
7684;DHT22;3884;48.616;12.872;2023-08-06T09:40:33;17.50;99.90
7684;DHT22;3884;48.616;12.872;2023-08-06T09:43:00;17.80;99.90
7684;DHT22;3884;48.616;12.872;2023-08-06T09:45:30;18.30;99.90
7684;DHT22;3884;48.616;12.872;2023-08-06T09:48:00;18.40;1.00
7684;DHT22;3884;48.616;12.872;2023-08-06T09:50:30;18.50;99.90
7684;DHT22;3884;48.616;12.872;2023-08-06T09:52:58;18.20;1.00
7684;DHT22;3884;48.616;12.872;2023-08-06T09:55:26;18.00;1.00
7684;DHT22;3884;48.616;12.872;2023-08-06T09:57:54;17.90;1.00
7684;DHT22;3884;48.616;12.872;2023-08-06T10:00:21;17.90;1.00
7684;DHT22;3884;48.616;12.872;2023-08-06T10:02:49;18.10;1.00
7684;DHT22;3884;48.616;12.872;2023-08-06T10:05:22;18.50;1.00
7684;DHT22;3884;48.616;12.872;2023-08-06T10:07:50;18.70;99.90
7684;DHT22;3884;48.616;12.872;2023-08-06T10:10:18;18.90;99.90
7684;DHT22;3884;48.616;12.872;2023-08-06T10:12:49;18.70;1.00
7684;DHT22;3884;48.616;12.872;2023-08-06T10:15:19;18.90;1.00
7684;DHT22;3884;48.616;12.872;2023-08-06T10:17:51;18.70;99.90
7684;DHT22;3884;48.616;12.872;2023-08-06T10:20:21;18.40;1.00
7684;DHT22;3884;48.616;12.872;2023-08-06T10:23:00;18.50;1.00
7684;DHT22;3884;48.616;12.872;2023-08-06T10:25:30;18.20;19.30
7684;DHT22;3884;48.616;12.872;2023-08-06T10:27:58;17.60;1.00
7684;DHT22;3884;48.616;12.872;2023-08-06T10:30:27;17.30;1.00
7684;DHT22;3884;48.616;12.872;2023-08-06T10:32:55;17.10;99.90
7684;DHT22;3884;48.616;12.872;2023-08-06T10:35:34;16.90;1.00
7684;DHT22;3884;48.616;12.872;2023-08-06T10:38:05;16.50;86.50
7684;DHT22;3884;48.616;12.872;2023-08-06T10:40:33;16.00;1.00
7684;DHT22;3884;48.616;12.872;2023-08-06T10:42:59;15.70;99.90
7684;DHT22;3884;48.616;12.872;2023-08-06T10:45:27;15.70;1.00
7684;DHT22;3884;48.616;12.872;2023-08-06T10:47:56;15.70;99.90
7684;DHT22;3884;48.616;12.872;2023-08-06T10:50:24;15.90;1.00
7684;DHT22;3884;48.616;12.872;2023-08-06T10:52:53;15.90;99.90
7684;DHT22;3884;48.616;12.872;2023-08-06T10:55:24;15.90;1.00
7684;DHT22;3884;48.616;12.872;2023-08-06T10:57:51;16.00;99.90
7684;DHT22;3884;48.616;12.872;2023-08-06T11:00:20;16.00;99.90
7684;DHT22;3884;48.616;12.872;2023-08-06T11:02:48;16.00;99.90
7684;DHT22;3884;48.616;12.872;2023-08-06T11:05:15;16.10;99.90
7684;DHT22;3884;48.616;12.872;2023-08-06T11:07:43;16.30;1.00
7684;DHT22;3884;48.616;12.872;2023-08-06T11:10:12;16.40;91.10
7684;DHT22;3884;48.616;12.872;2023-08-06T11:12:39;16.70;1.00
7684;DHT22;3884;48.616;12.872;2023-08-06T11:15:07;16.90;99.90
7684;DHT22;3884;48.616;12.872;2023-08-06T11:17:35;17.10;99.90
7684;DHT22;3884;48.616;12.872;2023-08-06T11:20:03;17.20;1.00
7684;DHT22;3884;48.616;12.872;2023-08-06T11:22:31;17.20;1.00
7684;DHT22;3884;48.616;12.872;2023-08-06T11:24:58;17.00;99.90
7684;DHT22;3884;48.616;12.872;2023-08-06T11:27:27;16.70;1.00
7684;DHT22;3884;48.616;12.872;2023-08-06T11:29:55;16.60;29.80
7684;DHT22;3884;48.616;12.872;2023-08-06T11:32:22;16.60;99.90
7684;DHT22;3884;48.616;12.872;2023-08-06T11:34:50;16.60;8.90
7684;DHT22;3884;48.616;12.872;2023-08-06T11:37:20;16.70;1.00
7684;DHT22;3884;48.616;12.872;2023-08-06T11:39:48;16.80;1.00
7684;DHT22;3884;48.616;12.872;2023-08-06T11:42:15;16.90;1.00
7684;DHT22;3884;48.616;12.872;2023-08-06T11:44:44;16.80;1.00
7684;DHT22;3884;48.616;12.872;2023-08-06T11:47:16;16.60;99.90
7684;DHT22;3884;48.616;12.872;2023-08-06T11:49:45;16.40;1.00
7684;DHT22;3884;48.616;12.872;2023-08-06T11:52:17;16.30;1.00
7684;DHT22;3884;48.616;12.872;2023-08-06T11:54:47;16.00;44.70
7684;DHT22;3884;48.616;12.872;2023-08-06T11:57:15;15.90;1.00
7684;DHT22;3884;48.616;12.872;2023-08-06T11:59:44;15.80;99.90
7684;DHT22;3884;48.616;12.872;2023-08-06T12:02:12;15.70;1.00
7684;DHT22;3884;48.616;12.872;2023-08-06T12:04:59;16.00;7.10
7684;DHT22;3884;48.616;12.872;2023-08-06T12:07:28;16.50;99.90
7684;DHT22;3884;48.616;12.872;2023-08-06T12:09:55;16.80;1.00
7684;DHT22;3884;48.616;12.872;2023-08-06T12:12:22;16.90;99.90
7684;DHT22;3884;48.616;12.872;2023-08-06T12:14:50;17.10;12.40
7684;DHT22;3884;48.616;12.872;2023-08-06T12:17:17;16.90;1.00
7684;DHT22;3884;48.616;12.872;2023-08-06T12:19:45;17.00;99.90
7684;DHT22;3884;48.616;12.872;2023-08-06T12:22:12;17.10;1.00
7684;DHT22;3884;48.616;12.872;2023-08-06T12:24:40;16.90;1.00
7684;DHT22;3884;48.616;12.872;2023-08-06T12:27:07;16.80;1.00
7684;DHT22;3884;48.616;12.872;2023-08-06T12:29:34;16.50;1.00
7684;DHT22;3884;48.616;12.872;2023-08-06T12:32:03;16.40;99.90
7684;DHT22;3884;48.616;12.872;2023-08-06T12:34:30;16.50;1.00
7684;DHT22;3884;48.616;12.872;2023-08-06T12:36:57;16.70;99.90
7684;DHT22;3884;48.616;12.872;2023-08-06T12:39:24;17.30;1.00
7684;DHT22;3884;48.616;12.872;2023-08-06T12:41:54;17.50;1.00
7684;DHT22;3884;48.616;12.872;2023-08-06T12:44:23;17.60;99.90
7684;DHT22;3884;48.616;12.872;2023-08-06T12:46:50;17.80;99.90
7684;DHT22;3884;48.616;12.872;2023-08-06T12:49:21;18.00;99.90
7684;DHT22;3884;48.616;12.872;2023-08-06T12:51:48;18.00;1.00
7684;DHT22;3884;48.616;12.872;2023-08-06T12:54:16;17.90;99.90
7684;DHT22;3884;48.616;12.872;2023-08-06T12:56:44;17.80;1.00
7684;DHT22;3884;48.616;12.872;2023-08-06T12:59:11;17.90;99.90
7684;DHT22;3884;48.616;12.872;2023-08-06T13:01:38;18.00;1.00
7684;DHT22;3884;48.616;12.872;2023-08-06T13:04:05;17.60;43.70
7684;DHT22;3884;48.616;12.872;2023-08-06T13:06:33;17.30;26.30
7684;DHT22;3884;48.616;12.872;2023-08-06T13:09:02;17.10;99.90
7684;DHT22;3884;48.616;12.872;2023-08-06T13:11:30;16.80;99.90
7684;DHT22;3884;48.616;12.872;2023-08-06T13:14:03;16.80;1.00
7684;DHT22;3884;48.616;12.872;2023-08-06T13:16:30;16.70;99.90
7684;DHT22;3884;48.616;12.872;2023-08-06T13:18:57;16.40;1.00
7684;DHT22;3884;48.616;12.872;2023-08-06T13:21:23;16.40;1.00
7684;DHT22;3884;48.616;12.872;2023-08-06T13:23:52;16.40;1.00
7684;DHT22;3884;48.616;12.872;2023-08-06T13:26:19;16.50;99.90
7684;DHT22;3884;48.616;12.872;2023-08-06T13:28:46;16.80;99.90
7684;DHT22;3884;48.616;12.872;2023-08-06T13:31:13;17.10;1.00
7684;DHT22;3884;48.616;12.872;2023-08-06T13:33:40;17.30;1.00
7684;DHT22;3884;48.616;12.872;2023-08-06T13:36:07;17.30;1.00
7684;DHT22;3884;48.616;12.872;2023-08-06T13:38:34;17.50;1.00
7684;DHT22;3884;48.616;12.872;2023-08-06T13:41:03;17.80;1.00
7684;DHT22;3884;48.616;12.872;2023-08-06T13:43:31;17.80;99.90
7684;DHT22;3884;48.616;12.872;2023-08-06T13:45:58;17.90;99.90
7684;DHT22;3884;48.616;12.872;2023-08-06T13:48:24;18.10;99.90
7684;DHT22;3884;48.616;12.872;2023-08-06T13:50:52;18.30;99.90
7684;DHT22;3884;48.616;12.872;2023-08-06T13:53:19;18.20;1.00
7684;DHT22;3884;48.616;12.872;2023-08-06T13:55:45;18.20;3.00
7684;DHT22;3884;48.616;12.872;2023-08-06T13:58:13;18.50;1.00
7684;DHT22;3884;48.616;12.872;2023-08-06T14:00:40;18.80;99.90
7684;DHT22;3884;48.616;12.872;2023-08-06T14:03:07;18.80;1.00
7684;DHT22;3884;48.616;12.872;2023-08-06T14:05:34;18.60;1.00
7684;DHT22;3884;48.616;12.872;2023-08-06T14:08:01;18.40;1.00
7684;DHT22;3884;48.616;12.872;2023-08-06T14:10:29;18.40;1.00
7684;DHT22;3884;48.616;12.872;2023-08-06T14:12:55;18.20;1.00
7684;DHT22;3884;48.616;12.872;2023-08-06T14:15:24;18.10;99.90
7684;DHT22;3884;48.616;12.872;2023-08-06T14:17:51;17.90;99.90
7684;DHT22;3884;48.616;12.872;2023-08-06T14:20:18;17.60;1.00
7684;DHT22;3884;48.616;12.872;2023-08-06T14:22:45;17.20;99.90
7684;DHT22;3884;48.616;12.872;2023-08-06T14:25:11;16.50;99.90
7684;DHT22;3884;48.616;12.872;2023-08-06T14:27:38;15.60;99.90
7684;DHT22;3884;48.616;12.872;2023-08-06T14:30:06;15.20;1.00
7684;DHT22;3884;48.616;12.872;2023-08-06T14:32:34;15.20;1.00
7684;DHT22;3884;48.616;12.872;2023-08-06T14:35:02;15.10;1.00
7684;DHT22;3884;48.616;12.872;2023-08-06T14:37:29;15.20;1.00
7684;DHT22;3884;48.616;12.872;2023-08-06T14:39:56;15.60;1.00
7684;DHT22;3884;48.616;12.872;2023-08-06T14:42:23;16.00;19.90
7684;DHT22;3884;48.616;12.872;2023-08-06T14:44:50;16.60;99.90
7684;DHT22;3884;48.616;12.872;2023-08-06T14:47:17;16.70;1.00
7684;DHT22;3884;48.616;12.872;2023-08-06T14:49:45;16.60;94.60
7684;DHT22;3884;48.616;12.872;2023-08-06T14:52:13;16.80;1.00
7684;DHT22;3884;48.616;12.872;2023-08-06T14:54:40;16.70;1.00
7684;DHT22;3884;48.616;12.872;2023-08-06T14:57:07;16.70;1.00
7684;DHT22;3884;48.616;12.872;2023-08-06T14:59:35;16.70;1.00
7684;DHT22;3884;48.616;12.872;2023-08-06T15:02:02;16.60;56.50
7684;DHT22;3884;48.616;12.872;2023-08-06T15:04:29;16.40;99.90
7684;DHT22;3884;48.616;12.872;2023-08-06T15:06:57;16.30;1.00
7684;DHT22;3884;48.616;12.872;2023-08-06T15:09:26;16.20;99.90
7684;DHT22;3884;48.616;12.872;2023-08-06T15:11:53;16.00;1.00
7684;DHT22;3884;48.616;12.872;2023-08-06T15:14:20;15.70;99.90
7684;DHT22;3884;48.616;12.872;2023-08-06T15:16:47;15.60;99.90
7684;DHT22;3884;48.616;12.872;2023-08-06T15:19:16;15.50;99.90
7684;DHT22;3884;48.616;12.872;2023-08-06T15:21:43;15.40;1.00
7684;DHT22;3884;48.616;12.872;2023-08-06T15:24:12;15.20;99.90
7684;DHT22;3884;48.616;12.872;2023-08-06T15:26:38;15.00;1.00
7684;DHT22;3884;48.616;12.872;2023-08-06T15:29:05;14.80;1.00
7684;DHT22;3884;48.616;12.872;2023-08-06T15:31:36;14.60;1.00
7684;DHT22;3884;48.616;12.872;2023-08-06T15:34:03;14.60;1.00
7684;DHT22;3884;48.616;12.872;2023-08-06T15:36:32;14.40;99.90
7684;DHT22;3884;48.616;12.872;2023-08-06T15:38:59;14.30;1.00
7684;DHT22;3884;48.616;12.872;2023-08-06T15:41:27;14.30;99.90
7684;DHT22;3884;48.616;12.872;2023-08-06T15:43:54;14.20;1.00
7684;DHT22;3884;48.616;12.872;2023-08-06T15:46:21;14.10;1.00
7684;DHT22;3884;48.616;12.872;2023-08-06T15:48:48;14.10;1.00
7684;DHT22;3884;48.616;12.872;2023-08-06T15:51:15;14.10;1.00
7684;DHT22;3884;48.616;12.872;2023-08-06T15:53:41;14.10;89.00
7684;DHT22;3884;48.616;12.872;2023-08-06T15:56:08;14.10;26.50